Time;durP1;ratioP1;P1;durP2;ratioP2;P2;SDS_P1;SDS_P2;PMS_P1;PMS_P2;Temp;Humidity;BMP_temperature;BMP_pressure;BME280_temperature;BME280_humidity;BME280_pressure;Samples;Min_cycle;Max_cycle;Signal;HPM_P1;HPM_P2
2023/03/10 00:00:07;;;;;;;6.57;1.80;;;;;;;;;;5093549;28;20224;-24
2023/03/10 00:02:34;;;;;;;2.00;1.60;;;;;;;;;;5091048;28;20212;-27
2023/03/10 00:05:03;;;;;;;3.80;1.33;;;;;;;;;;5091025;28;20204;-27
2023/03/10 00:07:30;;;;;;;2.30;1.73;;;;;;;;;;5081547;28;20228;-25
2023/03/10 00:09:57;;;;;;;5.63;2.87;;;;;;;;;;5090641;28;20215;-22
2023/03/10 00:12:26;;;;;;;3.87;2.27;;;;;;;;;;5090779;28;20215;-25
2023/03/10 00:14:54;;;;;;;2.27;1.27;;;;;;;;;;5083522;28;20205;-27
2023/03/10 00:17:21;;;;;;;2.27;1.30;;;;;;;;;;5088041;28;20232;-28
2023/03/10 00:19:48;;;;;;;4.90;1.70;;;;;;;;;;5090875;28;20239;-26
2023/03/10 00:22:16;;;;;;;4.87;1.90;;;;;;;;;;5088941;28;20212;-27
2023/03/10 00:24:43;;;;;;;2.60;1.57;;;;;;;;;;5083297;28;20219;-24
2023/03/10 00:27:10;;;;;;;3.33;1.60;;;;;;;;;;5090287;28;20216;-26
2023/03/10 00:29:37;;;;;;;5.60;1.50;;;;;;;;;;5076252;28;20204;-25
2023/03/10 00:32:05;;;;;;;1.73;1.33;;;;;;;;;;5090538;28;20208;-28
2023/03/10 00:34:32;;;;;;;2.43;1.13;;;;;;;;;;5090502;28;20197;-27
2023/03/10 00:36:59;;;;;;;1.30;1.13;;;;;;;;;;5082688;28;20229;-25
2023/03/10 00:39:28;;;;;;;2.97;1.30;;;;;;;;;;5084560;28;20224;-24
2023/03/10 00:41:55;;;;;;;1.67;1.03;;;;;;;;;;5089995;28;20283;-31
2023/03/10 00:44:22;;;;;;;1.33;0.90;;;;;;;;;;5080559;28;20208;-29
2023/03/10 00:46:49;;;;;;;1.27;0.83;;;;;;;;;;5089878;28;20235;-25
2023/03/10 00:49:16;;;;;;;2.90;1.00;;;;;;;;;;5090041;28;20280;-27
2023/03/10 00:51:44;;;;;;;1.10;1.00;;;;;;;;;;5081594;28;20425;-25
2023/03/10 00:54:11;;;;;;;1.80;1.17;;;;;;;;;;5088830;28;20204;-23
2023/03/10 00:56:39;;;;;;;2.47;1.10;;;;;;;;;;5089971;28;20225;-26
2023/03/10 00:59:06;;;;;;;2.57;1.07;;;;;;;;;;5078210;28;20212;-24
2023/03/10 01:01:35;;;;;;;3.93;1.37;;;;;;;;;;5089306;28;20223;-26
2023/03/10 01:04:03;;;;;;;1.37;1.17;;;;;;;;;;5089643;28;20212;-28
2023/03/10 01:06:30;;;;;;;7.57;2.90;;;;;;;;;;5086660;28;20243;-29
2023/03/10 01:08:58;;;;;;;4.73;2.53;;;;;;;;;;5077675;28;20201;-27
2023/03/10 01:11:26;;;;;;;6.07;3.03;;;;;;;;;;5088014;28;20200;-28
2023/03/10 01:13:56;;;;;;;4.60;3.03;;;;;;;;;;5079107;28;20296;-26
2023/03/10 01:16:24;;;;;;;5.83;2.97;;;;;;;;;;5087594;28;20224;-25
2023/03/10 01:18:51;;;;;;;7.67;3.53;;;;;;;;;;5089491;28;20192;-24
2023/03/10 01:21:19;;;;;;;5.70;3.77;;;;;;;;;;5084315;28;20246;-24
2023/03/10 01:23:46;;;;;;;5.23;3.33;;;;;;;;;;5081795;28;20563;-27
2023/03/10 01:26:13;;;;;;;7.20;4.17;;;;;;;;;;5089450;28;20287;-25
2023/03/10 01:28:40;;;;;;;6.67;3.70;;;;;;;;;;5080995;28;20204;-27
2023/03/10 01:31:09;;;;;;;4.13;3.03;;;;;;;;;;5088757;28;20203;-36
2023/03/10 01:33:38;;;;;;;6.03;2.93;;;;;;;;;;5089182;28;20197;-29
2023/03/10 01:36:07;;;;;;;6.90;4.03;;;;;;;;;;5089428;28;20213;-34
2023/03/10 01:38:34;;;;;;;10.20;4.10;;;;;;;;;;5076790;28;20205;-30
2023/03/10 01:41:01;;;;;;;7.77;4.30;;;;;;;;;;5084448;28;20236;-32
2023/03/10 01:43:30;;;;;;;14.53;4.50;;;;;;;;;;5083929;28;20222;-36
2023/03/10 01:46:23;;;;;;;6.90;4.40;;;;;;;;;;5080702;28;20216;-32
2023/03/10 01:48:52;;;;;;;8.23;3.80;;;;;;;;;;5083520;28;20230;-30
2023/03/10 01:51:19;;;;;;;8.83;3.83;;;;;;;;;;5087003;28;20208;-31
2023/03/10 01:53:47;;;;;;;9.13;4.30;;;;;;;;;;5077912;28;20205;-29
2023/03/10 01:56:14;;;;;;;11.37;3.97;;;;;;;;;;5086584;28;20208;-32
2023/03/10 01:58:44;;;;;;;9.10;4.77;;;;;;;;;;5085653;28;20201;-29
2023/03/10 02:01:12;;;;;;;3.80;3.00;;;;;;;;;;5079508;28;20236;-37
2023/03/10 02:03:42;;;;;;;6.37;4.30;;;;;;;;;;5089167;28;20216;-28
2023/03/10 02:06:12;;;;;;;8.63;4.33;;;;;;;;;;5089774;28;20409;-33
2023/03/10 02:08:43;;;;;;;7.30;3.87;;;;;;;;;;5081942;28;20209;-33
2023/03/10 02:11:10;;;;;;;5.90;3.77;;;;;;;;;;5071484;28;20240;-30
2023/03/10 02:13:37;;;;;;;7.63;3.97;;;;;;;;;;5074045;28;20201;-30
2023/03/10 02:16:04;;;;;;;7.13;3.93;;;;;;;;;;5087800;28;20209;-29
2023/03/10 02:18:32;;;;;;;5.47;3.70;;;;;;;;;;5088749;28;20201;-30
2023/03/10 02:21:05;;;;;;;5.60;3.17;;;;;;;;;;5084997;28;20285;-35
2023/03/10 02:23:37;;;;;;;3.53;1.50;;;;;;;;;;5076615;28;20200;-32
2023/03/10 02:26:08;;;;;;;2.47;1.63;;;;;;;;;;5088546;28;20201;-31
2023/03/10 02:28:36;;;;;;;3.40;1.60;;;;;;;;;;5082830;28;20201;-30
2023/03/10 02:31:04;;;;;;;3.53;1.80;;;;;;;;;;5085706;28;20243;-32
2023/03/10 02:33:32;;;;;;;3.33;1.57;;;;;;;;;;5093264;28;20208;-37
2023/03/10 02:36:03;;;;;;;2.17;1.27;;;;;;;;;;5095101;28;20201;-33
2023/03/10 02:38:30;;;;;;;2.63;1.60;;;;;;;;;;5092157;28;20272;-34
2023/03/10 02:40:57;;;;;;;2.33;1.80;;;;;;;;;;5093087;28;20288;-31
2023/03/10 02:43:26;;;;;;;1.50;1.27;;;;;;;;;;5088916;28;20204;-39
2023/03/10 02:45:56;;;;;;;3.63;1.43;;;;;;;;;;5089169;28;20224;-28
2023/03/10 02:48:24;;;;;;;0.60;0.60;;;;;;;;;;5091728;28;20196;-31
2023/03/10 02:50:52;;;;;;;2.20;1.03;;;;;;;;;;5092704;28;20218;-31
2023/03/10 02:53:21;;;;;;;1.10;0.90;;;;;;;;;;5086075;28;20209;-34
2023/03/10 02:55:48;;;;;;;3.63;1.47;;;;;;;;;;5085198;28;20292;-31
2023/03/10 02:58:16;;;;;;;1.07;0.83;;;;;;;;;;5087835;28;20223;-32
2023/03/10 03:00:46;;;;;;;1.67;0.80;;;;;;;;;;5088334;28;20283;-31
2023/03/10 03:03:15;;;;;;;1.20;0.60;;;;;;;;;;5092352;28;20204;-29
2023/03/10 03:05:42;;;;;;;2.03;0.53;;;;;;;;;;5092688;28;20200;-34
2023/03/10 03:08:10;;;;;;;1.83;0.70;;;;;;;;;;5086229;28;20236;-36
2023/03/10 03:10:38;;;;;;;1.50;0.83;;;;;;;;;;5087432;28;20197;-30
2023/03/10 03:13:05;;;;;;;0.53;0.50;;;;;;;;;;5089483;28;20262;-36
2023/03/10 03:15:32;;;;;;;0.30;0.30;;;;;;;;;;5084144;28;20205;-31
2023/03/10 03:18:00;;;;;;;1.23;0.80;;;;;;;;;;5091768;28;20232;-33
2023/03/10 03:20:29;;;;;;;1.53;0.57;;;;;;;;;;5090511;28;20231;-29
2023/03/10 03:22:57;;;;;;;0.23;0.23;;;;;;;;;;5086747;28;20205;-34
2023/03/10 03:25:25;;;;;;;1.07;0.57;;;;;;;;;;5092063;28;20215;-31
2023/03/10 03:27:52;;;;;;;0.57;0.40;;;;;;;;;;5093261;28;20220;-33
2023/03/10 03:30:20;;;;;;;0.40;0.40;;;;;;;;;;5085964;28;20219;-27
2023/03/10 03:32:47;;;;;;;2.93;0.40;;;;;;;;;;5095209;28;20200;-33
2023/03/10 03:35:16;;;;;;;1.40;0.40;;;;;;;;;;5094321;28;20207;-30
2023/03/10 03:37:45;;;;;;;1.50;0.50;;;;;;;;;;5084296;28;20233;-35
2023/03/10 03:40:13;;;;;;;0.37;0.37;;;;;;;;;;5090882;28;20228;-28
2023/03/10 03:42:40;;;;;;;0.77;0.50;;;;;;;;;;5091091;28;20274;-26
2023/03/10 03:45:08;;;;;;;0.70;0.50;;;;;;;;;;5084476;28;20223;-34
2023/03/10 03:47:35;;;;;;;2.83;0.60;;;;;;;;;;5083532;28;20227;-37
2023/03/10 03:50:03;;;;;;;0.40;0.40;;;;;;;;;;5091109;28;20207;-31
2023/03/10 03:52:30;;;;;;;0.60;0.40;;;;;;;;;;5089833;28;20211;-33
2023/03/10 03:54:58;;;;;;;0.23;0.20;;;;;;;;;;5082223;28;20202;-31
2023/03/10 03:57:25;;;;;;;1.00;0.40;;;;;;;;;;5089690;28;20220;-34
2023/03/10 03:59:53;;;;;;;1.03;0.50;;;;;;;;;;5081749;28;20389;-33
2023/03/10 04:02:20;;;;;;;0.50;0.43;;;;;;;;;;5336760;22;20229;-32
2023/03/10 04:04:48;;;;;;;0.97;0.50;;;;;;;;;;5070758;28;20208;-34
2023/03/10 04:07:15;;;;;;;0.40;0.40;;;;;;;;;;5069884;28;20225;-30
2023/03/10 04:09:43;;;;;;;1.50;0.67;;;;;;;;;;5060063;28;20247;-33
2023/03/10 04:12:11;;;;;;;1.50;0.50;;;;;;;;;;5066436;28;20190;-33
2023/03/10 04:14:38;;;;;;;0.40;0.40;;;;;;;;;;5064557;28;20209;-33
2023/03/10 04:17:06;;;;;;;1.77;0.50;;;;;;;;;;5067369;28;20229;-34
2023/03/10 04:19:33;;;;;;;0.40;0.30;;;;;;;;;;5070470;28;20438;-29
2023/03/10 04:22:00;;;;;;;0.20;0.20;;;;;;;;;;5061141;28;20217;-33
2023/03/10 04:24:27;;;;;;;1.60;0.40;;;;;;;;;;5069963;28;20628;-32
2023/03/10 04:26:55;;;;;;;0.20;0.20;;;;;;;;;;5069738;28;20231;-31
2023/03/10 04:29:23;;;;;;;0.93;0.40;;;;;;;;;;5063524;28;20499;-35
2023/03/10 04:31:51;;;;;;;0.77;0.30;;;;;;;;;;5070166;28;20421;-32
2023/03/10 04:34:18;;;;;;;0.33;0.33;;;;;;;;;;5070013;28;20208;-30
2023/03/10 04:36:45;;;;;;;0.40;0.27;;;;;;;;;;5062313;28;20218;-29
2023/03/10 04:39:12;;;;;;;1.53;0.40;;;;;;;;;;5059814;28;20205;-32
2023/03/10 04:41:39;;;;;;;0.17;0.17;;;;;;;;;;5069981;28;20244;-33
2023/03/10 04:44:07;;;;;;;1.00;0.30;;;;;;;;;;5066728;28;20207;-31
2023/03/10 04:46:38;;;;;;;0.87;0.40;;;;;;;;;;5070821;28;20233;-32
2023/03/10 04:49:05;;;;;;;1.10;0.40;;;;;;;;;;5072343;28;20197;-32
2023/03/10 04:51:33;;;;;;;1.07;0.60;;;;;;;;;;5061953;28;20201;-29
2023/03/10 04:54:00;;;;;;;1.03;0.50;;;;;;;;;;5059639;28;20574;-31
2023/03/10 04:56:28;;;;;;;0.77;0.43;;;;;;;;;;5070706;28;20231;-30
2023/03/10 04:58:55;;;;;;;0.60;0.40;;;;;;;;;;5062021;28;20269;-30
2023/03/10 05:01:22;;;;;;;0.50;0.50;;;;;;;;;;5068571;28;20221;-30
2023/03/10 05:03:50;;;;;;;0.50;0.50;;;;;;;;;;5069615;28;20655;-29
2023/03/10 05:06:18;;;;;;;1.90;0.47;;;;;;;;;;5069858;28;20225;-31
2023/03/10 05:08:45;;;;;;;1.03;0.40;;;;;;;;;;5061837;28;20682;-31
2023/03/10 05:11:13;;;;;;;2.00;0.80;;;;;;;;;;5066924;28;20205;-30
2023/03/10 05:13:40;;;;;;;0.47;0.47;;;;;;;;;;5061317;28;20204;-31
2023/03/10 05:16:12;;;;;;;1.73;0.47;;;;;;;;;;5063277;28;20198;-31
2023/03/10 05:18:39;;;;;;;0.90;0.53;;;;;;;;;;5061913;28;20205;-34
2023/03/10 05:21:08;;;;;;;1.80;0.57;;;;;;;;;;5070101;28;20236;-32
2023/03/10 05:23:35;;;;;;;0.60;0.50;;;;;;;;;;5058546;28;20202;-29
2023/03/10 05:26:03;;;;;;;2.00;0.50;;;;;;;;;;5069900;28;20558;-32
2023/03/10 05:28:30;;;;;;;1.40;0.50;;;;;;;;;;5065912;28;20647;-33
2023/03/10 05:30:58;;;;;;;0.57;0.57;;;;;;;;;;5065811;28;20229;-32
2023/03/10 05:33:25;;;;;;;1.47;0.53;;;;;;;;;;5069344;28;20213;-31
2023/03/10 05:35:52;;;;;;;1.23;0.50;;;;;;;;;;5070695;28;20213;-33
2023/03/10 05:38:20;;;;;;;0.40;0.40;;;;;;;;;;5062814;28;20225;-31
2023/03/10 05:40:48;;;;;;;1.03;0.40;;;;;;;;;;5069738;28;20221;-34
2023/03/10 05:43:15;;;;;;;1.53;0.70;;;;;;;;;;5066593;28;20202;-33
2023/03/10 05:45:42;;;;;;;1.73;0.50;;;;;;;;;;5066051;28;20205;-31
2023/03/10 05:48:09;;;;;;;0.83;0.50;;;;;;;;;;5069873;28;20221;-33
2023/03/10 05:50:36;;;;;;;0.60;0.60;;;;;;;;;;5070409;28;20200;-30
2023/03/10 05:53:03;;;;;;;0.40;0.40;;;;;;;;;;5064156;28;20570;-32
2023/03/10 05:55:32;;;;;;;0.47;0.30;;;;;;;;;;5071491;28;20209;-30
2023/03/10 05:57:59;;;;;;;2.33;0.53;;;;;;;;;;5069544;28;20275;-28
2023/03/10 06:00:26;;;;;;;1.93;0.43;;;;;;;;;;5066265;28;20583;-33
2023/03/10 06:02:54;;;;;;;2.13;0.70;;;;;;;;;;5071341;28;20217;-30
2023/03/10 06:05:24;;;;;;;1.10;0.30;;;;;;;;;;5071753;28;20213;-30
2023/03/10 06:07:51;;;;;;;1.20;0.43;;;;;;;;;;5067470;28;20221;-30
2023/03/10 06:10:18;;;;;;;2.40;0.40;;;;;;;;;;5075197;28;20213;-31
2023/03/10 06:12:47;;;;;;;1.67;0.70;;;;;;;;;;5072289;28;20202;-29
2023/03/10 06:15:14;;;;;;;0.70;0.20;;;;;;;;;;5059468;28;20206;-30
2023/03/10 06:17:42;;;;;;;0.30;0.30;;;;;;;;;;5074177;28;20221;-29
2023/03/10 06:20:10;;;;;;;0.90;0.50;;;;;;;;;;5065867;28;20603;-34
2023/03/10 06:22:37;;;;;;;0.70;0.50;;;;;;;;;;5064763;28;20220;-32
2023/03/10 06:25:04;;;;;;;2.10;0.70;;;;;;;;;;5073021;28;20853;-31
2023/03/10 06:27:33;;;;;;;1.90;0.73;;;;;;;;;;5067200;28;20217;-31
2023/03/10 06:30:01;;;;;;;2.30;1.03;;;;;;;;;;5055350;28;20232;-28
2023/03/10 06:32:29;;;;;;;2.67;0.90;;;;;;;;;;5073799;28;20666;-31
2023/03/10 06:34:56;;;;;;;1.03;0.60;;;;;;;;;;5075708;28;20209;-31
2023/03/10 06:37:23;;;;;;;1.50;0.40;;;;;;;;;;5074848;28;20506;-30
2023/03/10 06:39:50;;;;;;;0.40;0.40;;;;;;;;;;5069050;28;20662;-34
2023/03/10 06:42:17;;;;;;;1.83;0.63;;;;;;;;;;5072954;28;20216;-27
2023/03/10 06:44:44;;;;;;;3.30;0.70;;;;;;;;;;5070483;28;20205;-31
2023/03/10 06:47:13;;;;;;;2.07;0.80;;;;;;;;;;5075288;28;20221;-31
2023/03/10 06:49:40;;;;;;;3.40;0.60;;;;;;;;;;5075923;28;20201;-27
2023/03/10 06:52:07;;;;;;;1.67;0.70;;;;;;;;;;5063299;28;20201;-29
2023/03/10 06:54:34;;;;;;;1.00;0.50;;;;;;;;;;5068748;28;20602;-29
2023/03/10 06:57:01;;;;;;;0.50;0.50;;;;;;;;;;5076643;28;20217;-31
2023/03/10 06:59:31;;;;;;;2.90;0.70;;;;;;;;;;5067733;28;20288;-30
2023/03/10 07:01:58;;;;;;;3.10;0.83;;;;;;;;;;5075382;28;20217;-30
2023/03/10 07:04:27;;;;;;;1.83;0.60;;;;;;;;;;5075034;28;20291;-28
2023/03/10 07:06:54;;;;;;;1.37;0.70;;;;;;;;;;5069606;28;20226;-30
2023/03/10 07:09:21;;;;;;;0.90;0.90;;;;;;;;;;5064488;28;20206;-33
2023/03/10 07:11:48;;;;;;;1.87;0.87;;;;;;;;;;5074849;28;20197;-31
2023/03/10 07:14:15;;;;;;;3.57;0.80;;;;;;;;;;5070602;28;20208;-30
2023/03/10 07:16:45;;;;;;;3.20;0.63;;;;;;;;;;5076018;28;20228;-29
2023/03/10 07:19:12;;;;;;;1.83;0.80;;;;;;;;;;5076382;28;20255;-32
2023/03/10 07:21:40;;;;;;;2.00;0.70;;;;;;;;;;5076142;28;20222;-27
2023/03/10 07:24:07;;;;;;;4.80;1.23;;;;;;;;;;5073045;28;20555;-28
2023/03/10 07:26:35;;;;;;;2.53;0.90;;;;;;;;;;5076069;28;20213;-31
2023/03/10 07:29:02;;;;;;;1.03;0.80;;;;;;;;;;5074209;28;20407;-29
2023/03/10 07:31:29;;;;;;;2.37;1.10;;;;;;;;;;5075376;28;20271;-31
2023/03/10 07:33:56;;;;;;;1.27;1.13;;;;;;;;;;5074909;28;20205;-31
2023/03/10 07:36:45;;;;;;;1.13;0.80;;;;;;;;;;5075555;28;20221;-32
2023/03/10 07:39:13;;;;;;;2.23;0.77;;;;;;;;;;5065003;28;20209;-31
2023/03/10 07:41:41;;;;;;;2.00;0.70;;;;;;;;;;5067547;28;20213;-28
2023/03/10 07:44:08;;;;;;;0.50;0.50;;;;;;;;;;5072349;28;20202;-30
2023/03/10 07:46:35;;;;;;;3.73;0.60;;;;;;;;;;5075981;28;20217;-29
2023/03/10 07:49:03;;;;;;;1.90;0.60;;;;;;;;;;5076027;28;20229;-31
2023/03/10 07:51:31;;;;;;;1.33;0.80;;;;;;;;;;5067296;28;20194;-29
2023/03/10 07:53:58;;;;;;;2.00;0.60;;;;;;;;;;5074731;28;20208;-29
2023/03/10 07:56:26;;;;;;;0.50;0.50;;;;;;;;;;5074821;28;20232;-26
2023/03/10 07:58:53;;;;;;;0.97;0.60;;;;;;;;;;5066823;28;20289;-30
2023/03/10 08:01:21;;;;;;;1.13;0.70;;;;;;;;;;5071750;28;20201;-29
2023/03/10 08:03:58;;;;;;;0.73;0.70;;;;;;;;;;5075439;28;20284;-28
2023/03/10 08:06:26;;;;;;;0.97;0.57;;;;;;;;;;5070236;28;20225;-30
2023/03/10 08:08:53;;;;;;;0.60;0.60;;;;;;;;;;5069503;28;20201;-33
2023/03/10 08:11:21;;;;;;;1.90;0.67;;;;;;;;;;5074245;28;20197;-31
2023/03/10 08:13:49;;;;;;;1.53;0.63;;;;;;;;;;5067834;28;20527;-33
2023/03/10 08:16:17;;;;;;;1.63;0.80;;;;;;;;;;5068848;28;20239;-29
2023/03/10 08:18:45;;;;;;;1.20;1.00;;;;;;;;;;5074218;28;20588;-28
2023/03/10 08:21:12;;;;;;;2.77;0.80;;;;;;;;;;5072333;28;20560;-31
2023/03/10 08:23:39;;;;;;;2.03;0.90;;;;;;;;;;5071616;28;20216;-31
2023/03/10 08:26:08;;;;;;;2.43;0.60;;;;;;;;;;5072311;28;20291;-30
2023/03/10 08:28:37;;;;;;;1.67;0.60;;;;;;;;;;5051628;28;20210;-28
2023/03/10 08:31:08;;;;;;;1.00;0.80;;;;;;;;;;5067470;28;20549;-29
2023/03/10 08:33:36;;;;;;;0.77;0.70;;;;;;;;;;5070636;28;20193;-31
2023/03/10 08:36:04;;;;;;;2.80;0.80;;;;;;;;;;5072670;28;20295;-27
2023/03/10 08:38:31;;;;;;;4.07;1.23;;;;;;;;;;5068313;28;20213;-31
2023/03/10 08:40:58;;;;;;;2.20;0.83;;;;;;;;;;5066910;28;20205;-28
2023/03/10 08:43:26;;;;;;;2.37;0.60;;;;;;;;;;5067402;28;20682;-34
2023/03/10 08:45:53;;;;;;;3.50;0.90;;;;;;;;;;5063475;28;20205;-31
2023/03/10 08:48:21;;;;;;;2.60;1.40;;;;;;;;;;5072041;28;20217;-31
2023/03/10 08:50:50;;;;;;;0.10;0.10;;;;;;;;;;5072347;28;20314;-30
2023/03/10 08:53:17;;;;;;;1.27;0.50;;;;;;;;;;5063856;28;20194;-28
2023/03/10 08:55:44;;;;;;;0.53;0.40;;;;;;;;;;5072563;28;20188;-32
2023/03/10 08:58:11;;;;;;;0.73;0.60;;;;;;;;;;5068933;28;20745;-32
2023/03/10 09:00:39;;;;;;;1.60;0.63;;;;;;;;;;5064353;28;20212;-31
2023/03/10 09:03:06;;;;;;;0.30;0.30;;;;;;;;;;5072148;28;20221;-28
2023/03/10 09:05:34;;;;;;;1.83;0.40;;;;;;;;;;5072306;28;20299;-30
2023/03/10 09:08:01;;;;;;;0.60;0.40;;;;;;;;;;5062758;28;20225;-30
2023/03/10 09:10:29;;;;;;;2.07;0.50;;;;;;;;;;5072120;28;20201;-33
2023/03/10 09:12:56;;;;;;;0.67;0.67;;;;;;;;;;5070608;28;20197;-30
2023/03/10 09:15:23;;;;;;;1.00;0.47;;;;;;;;;;5065650;28;20197;-29
2023/03/10 09:17:50;;;;;;;1.00;0.70;;;;;;;;;;5072000;28;20213;-32
2023/03/10 09:20:20;;;;;;;0.97;0.60;;;;;;;;;;5072138;28;20216;-29
2023/03/10 09:22:49;;;;;;;0.60;0.53;;;;;;;;;;5064570;28;20247;-28
2023/03/10 09:25:16;;;;;;;0.50;0.50;;;;;;;;;;5062482;28;20208;-32
2023/03/10 09:27:43;;;;;;;0.30;0.30;;;;;;;;;;5071141;28;20568;-31
2023/03/10 09:30:11;;;;;;;0.83;0.50;;;;;;;;;;5065936;28;20201;-31
2023/03/10 09:32:38;;;;;;;0.80;0.70;;;;;;;;;;5063775;28;20189;-29
2023/03/10 09:35:06;;;;;;;1.40;0.60;;;;;;;;;;5072701;28;20220;-31
2023/03/10 09:37:33;;;;;;;2.13;0.67;;;;;;;;;;5072283;28;20362;-30
2023/03/10 09:40:04;;;;;;;1.07;0.40;;;;;;;;;;5066784;28;20208;-31
2023/03/10 09:42:41;;;;;;;0.33;0.27;;;;;;;;;;5074761;28;20197;-33
2023/03/10 09:45:17;;;;;;;1.60;0.40;;;;;;;;;;5072372;28;20205;-33
2023/03/10 09:47:49;;;;;;;0.93;0.70;;;;;;;;;;5076411;28;20224;-30
2023/03/10 09:50:23;;;;;;;1.20;0.70;;;;;;;;;;5076671;28;20393;-30
2023/03/10 09:52:56;;;;;;;3.20;0.50;;;;;;;;;;5067125;28;20197;-32
2023/03/10 09:55:26;;;;;;;0.30;0.30;;;;;;;;;;5074409;28;20288;-32
2023/03/10 09:57:55;;;;;;;1.37;0.50;;;;;;;;;;5074404;28;20223;-29
2023/03/10 10:00:23;;;;;;;2.30;0.40;;;;;;;;;;5064659;28;20201;-27
2023/03/10 10:02:52;;;;;;;1.30;0.20;;;;;;;;;;5169298;22;20232;-26
2023/03/10 10:05:24;;;;;;;1.60;0.63;;;;;;;;;;5091474;28;20212;-25
2023/03/10 10:07:53;;;;;;;0.83;0.37;;;;;;;;;;5095180;28;20311;-23
2023/03/10 10:10:24;;;;;;;0.30;0.27;;;;;;;;;;5095379;28;20215;-25
2023/03/10 10:12:54;;;;;;;0.53;0.27;;;;;;;;;;5098853;28;20200;-22
2023/03/10 10:15:22;;;;;;;1.33;0.40;;;;;;;;;;5097161;28;20219;-22
2023/03/10 10:17:57;;;;;;;1.10;0.27;;;;;;;;;;5094315;28;20220;-27
2023/03/10 10:20:26;;;;;;;2.17;0.53;;;;;;;;;;5094140;28;20208;-26
2023/03/10 10:22:53;;;;;;;1.20;0.40;;;;;;;;;;5091842;28;20227;-25
2023/03/10 10:25:21;;;;;;;1.70;0.53;;;;;;;;;;5094017;28;20197;-24
2023/03/10 10:27:51;;;;;;;0.67;0.30;;;;;;;;;;5094703;28;20223;-25
2023/03/10 10:30:42;;;;;;;1.60;0.43;;;;;;;;;;5088987;28;20205;-27
2023/03/10 10:33:12;;;;;;;1.47;0.50;;;;;;;;;;5081773;28;20208;-23
2023/03/10 10:35:40;;;;;;;1.60;0.50;;;;;;;;;;5092181;28;20207;-25
2023/03/10 10:38:17;;;;;;;3.97;1.03;;;;;;;;;;5097854;28;20227;-26
2023/03/10 10:40:48;;;;;;;0.40;0.40;;;;;;;;;;5095692;28;20230;-27
2023/03/10 10:43:17;;;;;;;0.90;0.30;;;;;;;;;;5094512;28;20233;-28
2023/03/10 10:45:44;;;;;;;3.30;0.57;;;;;;;;;;5092881;28;20210;-27
2023/03/10 10:48:30;;;;;;;0.90;0.50;;;;;;;;;;5092124;28;20224;-22
2023/03/10 10:50:57;;;;;;;0.60;0.40;;;;;;;;;;5092654;28;20200;-22
2023/03/10 10:53:27;;;;;;;1.60;0.50;;;;;;;;;;5090786;28;20201;-25
2023/03/10 10:56:02;;;;;;;1.30;0.30;;;;;;;;;;5091975;28;20248;-22
2023/03/10 10:58:30;;;;;;;0.97;0.40;;;;;;;;;;5090150;28;20195;-26
2023/03/10 11:00:58;;;;;;;0.50;0.20;;;;;;;;;;5091789;28;20197;-24
2023/03/10 11:03:29;;;;;;;0.60;0.40;;;;;;;;;;5091606;28;20225;-26
2023/03/10 11:05:56;;;;;;;0.93;0.20;;;;;;;;;;5091622;28;20215;-25
2023/03/10 11:08:36;;;;;;;1.90;0.63;;;;;;;;;;5092154;28;20201;-24
2023/03/10 11:11:08;;;;;;;1.33;0.23;;;;;;;;;;5091729;28;20236;-25
2023/03/10 11:13:39;;;;;;;1.10;0.30;;;;;;;;;;5090294;28;20416;-24
2023/03/10 11:16:10;;;;;;;0.70;0.43;;;;;;;;;;5091652;28;20212;-28
2023/03/10 11:18:42;;;;;;;1.60;0.47;;;;;;;;;;5083965;28;20213;-25
2023/03/10 11:21:12;;;;;;;0.40;0.40;;;;;;;;;;5092571;28;20203;-24
2023/03/10 11:23:42;;;;;;;0.90;0.50;;;;;;;;;;5091273;28;20228;-28
2023/03/10 11:26:17;;;;;;;1.13;0.30;;;;;;;;;;5091936;28;20216;-23
2023/03/10 11:28:49;;;;;;;0.93;0.37;;;;;;;;;;5078286;28;20206;-23
2023/03/10 11:31:21;;;;;;;1.33;0.37;;;;;;;;;;5091461;28;20208;-25
2023/03/10 11:33:52;;;;;;;1.17;0.40;;;;;;;;;;5091584;28;20211;-25
2023/03/10 11:36:27;;;;;;;1.30;0.30;;;;;;;;;;5091837;28;20232;-25
2023/03/10 11:38:58;;;;;;;0.40;0.30;;;;;;;;;;5089517;28;20211;-27
2023/03/10 11:41:27;;;;;;;1.27;0.33;;;;;;;;;;5090984;28;20277;-25
2023/03/10 11:43:56;;;;;;;1.47;0.60;;;;;;;;;;5089756;28;20239;-23
2023/03/10 11:46:25;;;;;;;0.60;0.40;;;;;;;;;;5090859;28;20224;-25
2023/03/10 11:48:57;;;;;;;1.10;0.50;;;;;;;;;;5091135;28;20235;-27
2023/03/10 11:51:27;;;;;;;0.77;0.40;;;;;;;;;;5092780;28;20204;-25
2023/03/10 11:53:56;;;;;;;1.27;0.60;;;;;;;;;;5091031;28;20577;-24
2023/03/10 11:56:24;;;;;;;1.00;0.90;;;;;;;;;;5091472;28;20227;-27
2023/03/10 11:58:53;;;;;;;1.37;0.40;;;;;;;;;;5089178;28;20209;-25
2023/03/10 12:01:22;;;;;;;2.20;0.50;;;;;;;;;;5090640;28;20216;-25
2023/03/10 12:03:53;;;;;;;1.10;0.40;;;;;;;;;;5089618;28;20239;-24
2023/03/10 12:06:25;;;;;;;1.47;0.53;;;;;;;;;;5091233;28;20225;-29
2023/03/10 12:08:54;;;;;;;0.87;0.50;;;;;;;;;;5089377;28;20222;-30
2023/03/10 12:11:24;;;;;;;1.73;0.73;;;;;;;;;;5090381;28;20204;-25
2023/03/10 12:13:52;;;;;;;0.87;0.37;;;;;;;;;;5095370;28;20212;-22
2023/03/10 12:16:21;;;;;;;1.43;0.40;;;;;;;;;;5090675;28;20224;-23
2023/03/10 12:18:48;;;;;;;1.40;0.43;;;;;;;;;;5090736;28;20201;-24
2023/03/10 12:21:18;;;;;;;1.90;0.40;;;;;;;;;;5090496;28;20196;-27
2023/03/10 12:23:47;;;;;;;0.97;0.50;;;;;;;;;;5094583;28;20288;-25
2023/03/10 12:26:14;;;;;;;1.70;0.40;;;;;;;;;;5090518;28;20196;-26
2023/03/10 12:28:42;;;;;;;2.03;0.47;;;;;;;;;;5091014;28;20201;-24
2023/03/10 12:31:10;;;;;;;0.30;0.30;;;;;;;;;;5090123;28;20208;-28
2023/03/10 12:33:41;;;;;;;0.50;0.40;;;;;;;;;;5090312;28;20205;-27
2023/03/10 12:36:11;;;;;;;0.33;0.20;;;;;;;;;;5090304;28;20228;-28
2023/03/10 12:38:44;;;;;;;1.53;0.37;;;;;;;;;;5090874;28;20200;-25
2023/03/10 12:41:13;;;;;;;1.43;0.30;;;;;;;;;;5090075;28;20239;-26
2023/03/10 12:44:01;;;;;;;0.70;0.30;;;;;;;;;;5082573;28;20220;-26
2023/03/10 12:46:39;;;;;;;1.60;0.20;;;;;;;;;;5090182;28;20235;-23
2023/03/10 12:49:15;;;;;;;1.40;0.57;;;;;;;;;;5091819;28;20204;-24
2023/03/10 12:51:45;;;;;;;2.07;0.50;;;;;;;;;;5088916;28;20291;-28
2023/03/10 12:54:29;;;;;;;0.30;0.20;;;;;;;;;;5091399;28;20197;-24
2023/03/10 12:57:01;;;;;;;0.30;0.30;;;;;;;;;;5083983;28;20235;-25
2023/03/10 12:59:31;;;;;;;0.23;0.23;;;;;;;;;;5087373;28;20208;-25
2023/03/10 13:02:01;;;;;;;2.13;0.30;;;;;;;;;;5089712;28;20212;-26
2023/03/10 13:04:28;;;;;;;0.17;0.17;;;;;;;;;;5089876;28;20219;-25
2023/03/10 13:07:02;;;;;;;0.20;0.20;;;;;;;;;;5090797;28;20227;-25
2023/03/10 13:09:31;;;;;;;0.10;0.10;;;;;;;;;;5089039;28;20208;-33
2023/03/10 13:12:02;;;;;;;1.40;0.37;;;;;;;;;;5089359;28;20204;-22
2023/03/10 13:14:34;;;;;;;0.50;0.30;;;;;;;;;;5088817;28;20211;-26
2023/03/10 13:17:02;;;;;;;3.60;0.30;;;;;;;;;;5089373;28;20220;-24
2023/03/10 13:19:30;;;;;;;0.17;0.10;;;;;;;;;;5089442;28;20207;-27
2023/03/10 13:21:57;;;;;;;0.40;0.20;;;;;;;;;;5088865;28;20214;-27
2023/03/10 13:24:25;;;;;;;0.53;0.20;;;;;;;;;;5088758;28;20216;-25
2023/03/10 13:27:09;;;;;;;0.33;0.10;;;;;;;;;;5089852;28;20224;-28
2023/03/10 13:29:38;;;;;;;0.97;0.30;;;;;;;;;;5089352;28;20291;-25
2023/03/10 13:32:06;;;;;;;0.30;0.20;;;;;;;;;;5089240;28;20214;-24
2023/03/10 13:34:35;;;;;;;0.00;0.00;;;;;;;;;;5089364;28;20208;-30
2023/03/10 13:37:03;;;;;;;1.20;0.20;;;;;;;;;;5087773;28;20255;-27
2023/03/10 13:39:30;;;;;;;0.83;0.20;;;;;;;;;;5088854;28;20211;-25
2023/03/10 13:41:58;;;;;;;0.10;0.10;;;;;;;;;;5089130;28;20196;-28
2023/03/10 13:44:28;;;;;;;1.40;0.40;;;;;;;;;;5087686;28;20255;-25
2023/03/10 13:46:57;;;;;;;1.10;0.77;;;;;;;;;;5089121;28;20270;-26
2023/03/10 13:49:26;;;;;;;1.67;1.57;;;;;;;;;;5088832;28;20197;-25
2023/03/10 13:51:54;;;;;;;1.57;1.47;;;;;;;;;;5089790;28;20575;-25
2023/03/10 13:54:22;;;;;;;3.73;3.43;;;;;;;;;;5088362;28;20197;-24
2023/03/10 13:56:51;;;;;;;0.30;0.30;;;;;;;;;;5089351;28;20217;-27
2023/03/10 13:59:20;;;;;;;0.40;0.40;;;;;;;;;;5087310;28;20212;-27
2023/03/10 14:01:52;;;;;;;0.10;0.10;;;;;;;;;;5089036;28;20200;-23
2023/03/10 14:04:20;;;;;;;0.10;0.10;;;;;;;;;;5089130;28;20224;-27
2023/03/10 14:07:06;;;;;;;0.20;0.03;;;;;;;;;;5089693;28;20231;-23
2023/03/10 14:09:33;;;;;;;0.10;0.10;;;;;;;;;;5087983;28;20211;-27
2023/03/10 14:12:01;;;;;;;0.30;0.30;;;;;;;;;;5090746;28;20204;-26
2023/03/10 14:14:30;;;;;;;0.10;0.10;;;;;;;;;;5089096;28;20300;-25
2023/03/10 14:16:59;;;;;;;0.20;0.20;;;;;;;;;;5090981;28;20221;-24
2023/03/10 14:19:39;;;;;;;1.10;0.30;;;;;;;;;;5091677;28;20211;-25
2023/03/10 14:22:21;;;;;;;0.10;0.10;;;;;;;;;;5091153;28;20284;-27
2023/03/10 14:24:48;;;;;;;0.30;0.20;;;;;;;;;;5089381;28;20221;-28
2023/03/10 14:27:15;;;;;;;0.20;0.10;;;;;;;;;;5090623;28;20216;-27
2023/03/10 14:29:47;;;;;;;0.40;0.30;;;;;;;;;;5090180;28;20201;-25
2023/03/10 14:32:16;;;;;;;0.00;0.00;;;;;;;;;;5093003;28;20209;-24
2023/03/10 14:34:43;;;;;;;1.07;0.20;;;;;;;;;;5093263;28;20200;-26
2023/03/10 14:37:10;;;;;;;0.10;0.10;;;;;;;;;;5096726;28;20224;-28
2023/03/10 14:39:38;;;;;;;0.33;0.20;;;;;;;;;;5092525;28;20207;-23
2023/03/10 14:42:05;;;;;;;0.30;0.30;;;;;;;;;;5092588;28;20215;-25
2023/03/10 14:44:32;;;;;;;0.37;0.20;;;;;;;;;;5090352;28;20225;-26
2023/03/10 14:46:59;;;;;;;0.20;0.20;;;;;;;;;;5092182;28;20232;-26
2023/03/10 14:49:28;;;;;;;0.20;0.20;;;;;;;;;;5092048;28;20200;-26
2023/03/10 14:51:55;;;;;;;0.10;0.10;;;;;;;;;;5090512;28;20211;-26